Time;durP1;ratioP1;P1;durP2;ratioP2;P2;SDS_P1;SDS_P2;PMS_P1;PMS_P2;Temp;Humidity;BMP_temperature;BMP_pressure;BME280_temperature;BME280_humidity;BME280_pressure;Samples;Min_cycle;Max_cycle;Signal;HPM_P1;HPM_P2
2022/08/31 04:19:46;;;;;;;2.22;2.22;;;;;;;;;;6341950;22;20368;-93
2022/08/31 04:26:09;;;;;;;2.30;2.20;;;;;;;;;;6198576;23;20368;-94
2022/08/31 04:29:01;;;;;;;2.10;2.10;;;;;;;;;;6206354;23;20391;-94
2022/08/31 04:31:58;;;;;;;2.45;2.25;;;;;;;;;;6292341;22;20373;-95
2022/08/31 04:40:25;;;;;;;2.50;2.30;;;;;;;;;;6317769;22;20431;-95
2022/08/31 04:42:51;;;;;;;2.17;2.17;;;;;;;;;;6311833;22;20442;-92
2022/08/31 04:45:30;;;;;;;2.40;2.30;;;;;;;;;;6309792;22;20368;-93
2022/08/31 04:51:01;;;;;;;2.60;2.40;;;;;;;;;;6286406;22;20415;-91
2022/08/31 04:53:40;;;;;;;2.80;2.70;;;;;;;;;;6310255;22;20364;-94
2022/08/31 04:56:12;;;;;;;2.70;2.60;;;;;;;;;;6302623;22;20403;-92
2022/08/31 04:58:38;;;;;;;7.40;2.90;;;;;;;;;;6310787;22;20349;-92
2022/08/31 05:01:07;;;;;;;2.80;2.70;;;;;;;;;;6306147;22;20439;-89
2022/08/31 05:03:33;;;;;;;4.28;2.13;;;;;;;;;;6308927;22;20432;-87
2022/08/31 05:05:59;;;;;;;6.85;4.32;;;;;;;;;;6307787;22;20360;-89
2022/08/31 05:08:26;;;;;;;3.43;2.90;;;;;;;;;;6334926;22;20796;-88
2022/08/31 05:10:52;;;;;;;2.80;2.70;;;;;;;;;;6307435;22;20349;-89
2022/08/31 05:13:18;;;;;;;3.05;2.85;;;;;;;;;;6307836;22;20440;-89
2022/08/31 05:15:44;;;;;;;3.15;2.70;;;;;;;;;;6332932;22;20687;-89
2022/08/31 05:18:10;;;;;;;2.30;2.20;;;;;;;;;;6308323;22;20451;-90
2022/08/31 05:20:36;;;;;;;2.75;2.65;;;;;;;;;;6304983;22;20345;-89
2022/08/31 05:23:02;;;;;;;4.00;3.20;;;;;;;;;;6309883;22;20371;-89
2022/08/31 05:25:28;;;;;;;3.60;3.40;;;;;;;;;;6311869;22;20364;-88
2022/08/31 05:27:55;;;;;;;2.60;2.50;;;;;;;;;;6312092;22;20407;-90
2022/08/31 05:30:21;;;;;;;3.03;2.90;;;;;;;;;;6308651;22;20433;-89
2022/08/31 05:32:47;;;;;;;3.75;2.60;;;;;;;;;;6310861;22;20369;-90
2022/08/31 05:35:13;;;;;;;3.45;2.70;;;;;;;;;;6305924;22;20820;-89
2022/08/31 05:37:40;;;;;;;3.42;2.95;;;;;;;;;;6309166;22;20349;-88
2022/08/31 05:40:07;;;;;;;2.80;2.60;;;;;;;;;;6335406;22;20345;-89
2022/08/31 05:42:33;;;;;;;2.97;2.88;;;;;;;;;;6310573;22;20360;-89
2022/08/31 05:44:59;;;;;;;3.60;3.30;;;;;;;;;;6310739;22;20360;-90
2022/08/31 05:47:25;;;;;;;3.30;3.00;;;;;;;;;;6315575;22;20463;-90
2022/08/31 05:49:51;;;;;;;4.03;3.72;;;;;;;;;;6316365;22;20341;-87
2022/08/31 05:52:17;;;;;;;3.17;2.90;;;;;;;;;;6315045;22;20372;-89
2022/08/31 05:54:44;;;;;;;3.00;2.90;;;;;;;;;;6308532;22;20666;-89
2022/08/31 05:57:10;;;;;;;3.45;3.15;;;;;;;;;;6314859;22;20378;-89
2022/08/31 05:59:38;;;;;;;3.10;2.80;;;;;;;;;;6316860;22;20365;-87
2022/08/31 06:02:04;;;;;;;3.50;3.30;;;;;;;;;;6308814;22;20356;-88
2022/08/31 06:04:30;;;;;;;3.00;2.90;;;;;;;;;;6309623;22;20372;-88
2022/08/31 06:06:57;;;;;;;3.00;2.80;;;;;;;;;;6306089;22;20414;-88
2022/08/31 06:09:25;;;;;;;3.95;2.90;;;;;;;;;;6322232;22;20832;-92
2022/08/31 06:12:10;;;;;;;3.30;3.20;;;;;;;;;;6293570;22;20455;-93
2022/08/31 06:14:44;;;;;;;2.80;2.70;;;;;;;;;;6321624;22;20358;-93
2022/08/31 06:17:11;;;;;;;3.40;3.10;;;;;;;;;;6321250;22;20386;-93
2022/08/31 06:22:37;;;;;;;2.83;2.73;;;;;;;;;;6308580;22;20413;-94
2022/08/31 06:25:05;;;;;;;2.90;2.80;;;;;;;;;;6320382;22;20350;-95
2022/08/31 06:27:41;;;;;;;3.45;3.22;;;;;;;;;;6322395;22;20360;-95
2022/08/31 06:30:11;;;;;;;3.75;3.15;;;;;;;;;;6337369;22;20389;-93
2022/08/31 06:32:40;;;;;;;3.40;3.20;;;;;;;;;;6300252;22;20417;-92
2022/08/31 06:35:08;;;;;;;4.85;3.60;;;;;;;;;;6327714;22;20390;-94
2022/08/31 06:37:39;;;;;;;3.07;2.97;;;;;;;;;;6307309;22;20624;-94
2022/08/31 06:40:06;;;;;;;7.15;3.38;;;;;;;;;;6324078;22;20357;-94
2022/08/31 06:42:32;;;;;;;3.00;2.80;;;;;;;;;;6329647;22;20337;-92
2022/08/31 06:44:58;;;;;;;3.50;3.20;;;;;;;;;;6325028;22;20349;-93
2022/08/31 06:47:25;;;;;;;4.28;3.47;;;;;;;;;;6353360;22;20372;-92
2022/08/31 06:49:58;;;;;;;3.80;3.50;;;;;;;;;;6355796;22;20364;-93
2022/08/31 06:57:38;;;;;;;3.80;3.70;;;;;;;;;;6350288;22;20404;-92
2022/08/31 07:00:25;;;;;;;3.60;3.50;;;;;;;;;;6330091;22;20360;-93
2022/08/31 07:03:21;;;;;;;3.70;3.40;;;;;;;;;;6327248;22;20357;-92
2022/08/31 07:05:45;;;;;;;2.90;2.80;;;;;;;;;;6352937;22;20410;-93
2022/08/31 07:08:19;;;;;;;3.60;3.40;;;;;;;;;;6329036;22;20414;-93
2022/08/31 07:10:46;;;;;;;6.32;3.67;;;;;;;;;;6328867;22;20398;-90
2022/08/31 07:13:13;;;;;;;3.50;2.83;;;;;;;;;;6331605;22;20368;-92
2022/08/31 07:15:41;;;;;;;7.70;3.10;;;;;;;;;;6329417;22;20406;-90
2022/08/31 07:18:10;;;;;;;4.03;3.07;;;;;;;;;;6324582;22;20164;-93
2022/08/31 07:21:02;;;;;;;3.90;3.07;;;;;;;;;;6326978;22;20417;-96
2022/08/31 07:26:46;;;;;;;3.20;3.10;;;;;;;;;;6349411;22;20375;-92
2022/08/31 07:29:14;;;;;;;2.70;2.50;;;;;;;;;;6324969;22;20379;-94
2022/08/31 07:34:56;;;;;;;2.73;2.63;;;;;;;;;;6352635;22;20362;-94
2022/08/31 07:43:00;;;;;;;3.45;2.60;;;;;;;;;;6354655;22;20356;-92
2022/08/31 07:45:55;;;;;;;4.85;3.20;;;;;;;;;;6331433;22;20349;-94
2022/08/31 07:48:21;;;;;;;2.90;2.70;;;;;;;;;;6359254;22;20376;-92
2022/08/31 07:50:55;;;;;;;4.80;2.80;;;;;;;;;;6303641;22;20353;-95
2022/08/31 07:53:56;;;;;;;;;;;;;;;;;;;;;
2022/08/31 07:56:23;;;;;;;3.55;3.45;;;;;;;;;;6346097;22;20342;-92
2022/08/31 07:58:49;;;;;;;3.67;3.40;;;;;;;;;;6327119;22;20459;-92
2022/08/31 08:01:17;;;;;;;3.10;2.90;;;;;;;;;;6326928;22;20357;-93
2022/08/31 08:03:52;;;;;;;3.43;3.23;;;;;;;;;;6326157;22;20361;-93
2022/08/31 08:06:28;;;;;;;;;;;;;;;;;;;;;
2022/08/31 08:09:06;;;;;;;3.30;3.10;;;;;;;;;;6354375;22;20336;-94
2022/08/31 08:11:44;;;;;;;4.38;3.97;;;;;;;;;;6324144;22;20429;-93
2022/08/31 08:14:13;;;;;;;6.40;3.10;;;;;;;;;;6329209;22;20402;-94
2022/08/31 08:19:41;;;;;;;2.72;2.63;;;;;;;;;;6352331;22;20353;-94
2022/08/31 08:22:10;;;;;;;3.33;3.13;;;;;;;;;;6330687;22;20333;-93
2022/08/31 08:24:36;;;;;;;3.00;2.80;;;;;;;;;;6328977;22;20444;-92
2022/08/31 08:27:04;;;;;;;4.18;2.95;;;;;;;;;;6326087;22;20367;-93
2022/08/31 08:30:01;;;;;;;4.75;3.30;;;;;;;;;;6330584;22;20417;-92
2022/08/31 08:32:33;;;;;;;4.43;2.83;;;;;;;;;;6324975;22;20390;-92
2022/08/31 08:34:59;;;;;;;3.60;3.30;;;;;;;;;;6325051;22;20378;-93
2022/08/31 08:37:26;;;;;;;4.18;3.70;;;;;;;;;;6322417;22;20365;-92
2022/08/31 08:40:00;;;;;;;4.22;3.25;;;;;;;;;;6324018;22;20377;-94
2022/08/31 08:42:47;;;;;;;5.82;5.13;;;;;;;;;;6327823;22;20375;-92
2022/08/31 08:45:16;;;;;;;4.50;3.37;;;;;;;;;;6326673;22;20847;-93
2022/08/31 08:47:44;;;;;;;2.80;2.60;;;;;;;;;;6324315;22;20364;-93
2022/08/31 08:50:10;;;;;;;4.95;2.85;;;;;;;;;;6324380;22;20866;-92
2022/08/31 08:52:40;;;;;;;3.30;2.97;;;;;;;;;;6322994;22;20430;-92
2022/08/31 08:55:09;;;;;;;3.50;3.00;;;;;;;;;;6322607;22;20361;-92
2022/08/31 08:57:37;;;;;;;3.30;3.10;;;;;;;;;;6352472;22;20424;-94
2022/08/31 09:00:39;;;;;;;;;;;;;;;;;;;;;
2022/08/31 09:03:34;;;;;;;3.10;3.00;;;;;;;;;;6349749;22;20356;-92
2022/08/31 09:06:26;;;;;;;3.15;2.95;;;;;;;;;;6323447;22;20345;-95
2022/08/31 09:09:09;;;;;;;3.80;3.60;;;;;;;;;;6306470;22;20361;-92
2022/08/31 09:11:47;;;;;;;5.47;3.50;;;;;;;;;;6322896;22;20375;-93
2022/08/31 09:14:25;;;;;;;4.80;3.15;;;;;;;;;;6323506;22;20367;-93
2022/08/31 09:17:08;;;;;;;3.40;3.20;;;;;;;;;;6346538;22;20337;-93
2022/08/31 09:22:22;;;;;;;3.00;2.80;;;;;;;;;;6341688;22;20347;-94
2022/08/31 09:24:58;;;;;;;4.30;2.80;;;;;;;;;;6343058;22;20356;-93
2022/08/31 09:27:45;;;;;;;3.15;3.05;;;;;;;;;;6313210;22;20353;-90
2022/08/31 09:30:16;;;;;;;3.22;3.03;;;;;;;;;;6339147;22;20423;-93
2022/08/31 09:32:53;;;;;;;3.53;3.22;;;;;;;;;;6318592;22;20369;-93
2022/08/31 09:35:29;;;;;;;6.13;4.45;;;;;;;;;;6316473;22;20357;-91
2022/08/31 09:38:10;;;;;;;5.28;4.22;;;;;;;;;;6319801;22;20361;-91
2022/08/31 09:40:40;;;;;;;5.10;4.18;;;;;;;;;;6319833;22;20400;-91
2022/08/31 09:43:21;;;;;;;4.00;3.70;;;;;;;;;;6321705;22;20369;-92
2022/08/31 09:46:06;;;;;;;3.67;3.47;;;;;;;;;;6325567;22;20368;-92
2022/08/31 09:48:57;;;;;;;3.63;3.42;;;;;;;;;;6330119;22;20344;-92
2022/08/31 09:51:39;;;;;;;3.50;3.20;;;;;;;;;;6329634;22;20357;-93
2022/08/31 09:56:56;;;;;;;3.42;3.22;;;;;;;;;;6349736;22;20355;-91
2022/08/31 09:59:57;;;;;;;3.60;3.25;;;;;;;;;;6331255;22;20361;-92
2022/08/31 10:02:39;;;;;;;3.97;3.67;;;;;;;;;;6327648;22;20345;-90
2022/08/31 10:05:06;;;;;;;3.13;2.97;;;;;;;;;;6358204;22;20387;-92
2022/08/31 10:07:45;;;;;;;3.50;3.25;;;;;;;;;;6331711;22;20351;-93
2022/08/31 10:10:17;;;;;;;3.90;3.60;;;;;;;;;;6327309;22;20770;-93
2022/08/31 10:12:50;;;;;;;3.22;3.03;;;;;;;;;;6327892;22;20373;-92
2022/08/31 10:15:23;;;;;;;5.25;3.15;;;;;;;;;;6334658;22;20372;-92
2022/08/31 10:17:52;;;;;;;3.88;3.55;;;;;;;;;;6333630;22;20345;-92
2022/08/31 10:20:37;;;;;;;4.28;3.70;;;;;;;;;;6332202;22;20355;-94
2022/08/31 10:23:09;;;;;;;3.70;3.50;;;;;;;;;;6331543;22;20349;-92
2022/08/31 10:25:40;;;;;;;3.80;3.50;;;;;;;;;;6358062;22;20332;-91
2022/08/31 10:28:39;;;;;;;3.80;3.60;;;;;;;;;;6331707;22;20349;-92
2022/08/31 10:31:12;;;;;;;3.80;3.60;;;;;;;;;;6318196;22;20333;-92
2022/08/31 10:36:36;;;;;;;5.72;4.20;;;;;;;;;;6357649;22;20360;-92
2022/08/31 10:39:03;;;;;;;3.67;3.42;;;;;;;;;;6329719;22;20345;-91
2022/08/31 10:41:32;;;;;;;4.50;4.30;;;;;;;;;;6327824;22;20437;-92
2022/08/31 10:44:04;;;;;;;4.45;4.25;;;;;;;;;;6325882;22;20374;-93
2022/08/31 10:46:34;;;;;;;3.95;3.70;;;;;;;;;;6329692;22;20345;-94
2022/08/31 10:49:04;;;;;;;4.38;4.15;;;;;;;;;;6331994;22;20349;-93
2022/08/31 10:51:54;;;;;;;5.30;5.00;;;;;;;;;;6328435;22;20382;-92
2022/08/31 10:54:35;;;;;;;4.70;4.30;;;;;;;;;;6328271;22;20367;-92
2022/08/31 10:57:01;;;;;;;4.85;4.55;;;;;;;;;;6325399;22;20373;-93
2022/08/31 10:59:43;;;;;;;6.40;4.10;;;;;;;;;;6322518;22;20360;-93
2022/08/31 11:02:30;;;;;;;6.10;4.70;;;;;;;;;;6343727;22;20380;-91
2022/08/31 11:05:04;;;;;;;5.00;4.50;;;;;;;;;;6324140;22;20349;-92
2022/08/31 11:07:41;;;;;;;5.30;4.80;;;;;;;;;;6323304;22;20372;-92
2022/08/31 11:10:19;;;;;;;4.63;4.10;;;;;;;;;;6323416;22;20820;-91
2022/08/31 11:12:51;;;;;;;4.53;4.43;;;;;;;;;;6317962;22;20384;-92
2022/08/31 11:15:21;;;;;;;5.20;4.70;;;;;;;;;;6326150;22;20640;-92
2022/08/31 11:17:49;;;;;;;5.43;5.13;;;;;;;;;;6326966;22;20384;-93
2022/08/31 11:20:39;;;;;;;4.95;4.65;;;;;;;;;;6326957;22;20391;-92
2022/08/31 11:23:13;;;;;;;4.77;4.33;;;;;;;;;;6323375;22;20359;-92
2022/08/31 11:25:52;;;;;;;5.18;4.78;;;;;;;;;;6345178;22;20337;-93
2022/08/31 11:28:34;;;;;;;4.40;4.10;;;;;;;;;;6349880;22;20349;-92
2022/08/31 11:31:04;;;;;;;4.05;3.75;;;;;;;;;;6347572;22;20383;-91
2022/08/31 11:33:32;;;;;;;4.30;3.30;;;;;;;;;;6324516;22;20456;-93
2022/08/31 11:36:13;;;;;;;4.07;3.78;;;;;;;;;;6323155;22;20367;-91
2022/08/31 11:39:02;;;;;;;3.70;3.40;;;;;;;;;;6323442;22;20353;-93
2022/08/31 11:41:55;;;;;;;3.70;3.50;;;;;;;;;;6322987;22;20391;-92
2022/08/31 11:44:40;;;;;;;3.93;3.83;;;;;;;;;;6327931;22;20381;-91
2022/08/31 11:47:06;;;;;;;;;;;;;;;;;;6323355;22;20229;-93
2022/08/31 11:49:34;;;;;;;;;;;;;;;;;;6324802;22;19924;-93
2022/08/31 11:52:12;;;;;;;;;;;;;;;;;;6322801;22;19973;-93
2022/08/31 11:54:41;;;;;;;;;;;;;;;;;;6325221;22;20084;-93
2022/08/31 11:57:09;;;;;;;;;;;;;;;;;;6321721;22;19910;-92
2022/08/31 11:59:35;;;;;;;;;;;;;;;;;;6322709;22;19898;-93
2022/08/31 12:02:02;;;;;;;;;;;;;;;;;;6317438;22;19899;-92
2022/08/31 12:04:40;;;;;;;;;;;;;;;;;;6320434;22;19910;-93
2022/08/31 12:07:06;;;;;;;;;;;;;;;;;;6318390;22;19899;-93
2022/08/31 12:09:32;;;;;;;;;;;;;;;;;;6322102;22;20333;-91
2022/08/31 12:12:07;;;;;;;;;;;;;;;;;;6323199;22;19917;-92
2022/08/31 12:14:39;;;;;;;;;;;;;;;;;;6323760;22;19906;-89
2022/08/31 12:17:08;;;;;;;;;;;;;;;;;;6324054;22;19902;-91
2022/08/31 12:25:04;;;;;;;;;;;;;;;;;;6353933;22;19937;-93
2022/08/31 12:27:30;;;;;;;;;;;;;;;;;;6322592;22;19977;-91
2022/08/31 12:29:56;;;;;;;;;;;;;;;;;;6322007;22;19902;-94
2022/08/31 12:32:22;;;;;;;;;;;;;;;;;;6319863;22;19929;-96
2022/08/31 12:34:48;;;;;;;;;;;;;;;;;;6322409;22;19921;-93
2022/08/31 12:37:22;;;;;;;;;;;;;;;;;;6351233;22;19902;-94
2022/08/31 12:39:51;;;;;;;;;;;;;;;;;;6323119;22;19898;-93
2022/08/31 12:42:17;;;;;;;;;;;;;;;;;;6325128;22;19932;-90
2022/08/31 12:44:43;;;;;;;;;;;;;;;;;;6324450;22;19899;-94
2022/08/31 12:47:10;;;;;;;;;;;;;;;;;;6325004;22;19899;-91
2022/08/31 12:49:36;;;;;;;;;;;;;;;;;;6324400;22;19902;-92
2022/08/31 12:54:50;;;;;;;;;;;;;;;;;;6351773;22;19952;-94
2022/08/31 12:57:16;;;;;;;;;;;;;;;;;;6324431;22;19903;-91
2022/08/31 12:59:43;;;;;;;;;;;;;;;;;;6325891;22;19899;-91
2022/08/31 13:02:11;;;;;;;;;;;;;;;;;;6351460;22;20101;-91
2022/08/31 13:04:58;;;;;;;;;;;;;;;;;;6332094;22;19917;-93
2022/08/31 13:07:27;;;;;;;;;;;;;;;;;;6355343;22;19898;-92
2022/08/31 13:09:53;;;;;;;;;;;;;;;;;;6329876;22;19897;-92
2022/08/31 13:12:25;;;;;;;;;;;;;;;;;;6331095;22;19906;-91
2022/08/31 13:14:51;;;;;;;;;;;;;;;;;;6322962;22;19978;-93
2022/08/31 13:17:17;;;;;;;;;;;;;;;;;;6322460;22;19905;-93
2022/08/31 13:19:43;;;;;;;;;;;;;;;;;;6323507;22;19910;-95
2022/08/31 13:22:15;;;;;;;;;;;;;;;;;;6322045;22;19903;-91
2022/08/31 13:24:41;;;;;;;;;;;;;;;;;;6322878;22;19945;-94
2022/08/31 13:27:07;;;;;;;;;;;;;;;;;;6346277;22;19918;-94
2022/08/31 13:29:39;;;;;;;;;;;;;;;;;;6322145;22;20030;-92
2022/08/31 13:32:05;;;;;;;;;;;;;;;;;;6328470;22;19895;-96
2022/08/31 13:35:16;;;;;;;;;;;;;;;;;;6328628;22;19902;-95
2022/08/31 13:37:27;;;;;;;;;;;;;;;;;;6339597;22;20000;-95
2022/08/31 13:39:53;;;;;;;;;;;;;;;;;;6320962;22;19906;-92
2022/08/31 13:42:19;;;;;;;;;;;;;;;;;;6353658;22;19946;-95
2022/08/31 13:44:48;;;;;;;;;;;;;;;;;;6321075;22;19917;-92
2022/08/31 13:47:15;;;;;;;;;;;;;;;;;;6323571;22;19902;-93
2022/08/31 13:49:46;;;;;;;;;;;;;;;;;;6324708;22;19990;-96
2022/08/31 13:52:30;;;;;;;;;;;;;;;;;;6350454;22;20248;-94
2022/08/31 13:55:01;;;;;;;;;;;;;;;;;;6318624;22;19910;-91
2022/08/31 13:57:28;;;;;;;;;;;;;;;;;;6311790;22;20208;-93
2022/08/31 14:02:39;;;;;;;;;;;;;;;;;;6318203;22;20207;-91
2022/08/31 14:29:47;;;;;;;;;;;;;;;;;;6318217;22;19961;-95
2022/08/31 14:34:47;;;;;;;;;;;;;;;;;;6284885;22;19965;-95
2022/08/31 14:37:28;;;;;;;;;;;;;;;;;;6286621;22;20310;-91
2022/08/31 14:40:04;;;;;;;;;;;;;;;;;;6284520;22;19899;-94
2022/08/31 14:45:26;;;;;;;;;;;;;;;;;;6256623;22;19903;-93
2022/08/31 14:47:58;;;;;;;;;;;;;;;;;;6281209;22;19899;-90
2022/08/31 14:50:25;;;;;;;;;;;;;;;;;;6278327;22;19903;-93
2022/08/31 14:52:51;;;;;;;;;;;;;;;;;;6275899;22;19907;-94
2022/08/31 14:55:18;;;;;;;;;;;;;;;;;;6283987;22;20354;-92
2022/08/31 14:57:56;;;;;;;;;;;;;;;;;;6286540;22;19922;-95
2022/08/31 15:00:23;;;;;;;;;;;;;;;;;;6282886;22;20295;-95
2022/08/31 15:03:13;;;;;;;;;;;;;;;;;;6279338;22;20126;-94
2022/08/31 15:05:42;;;;;;;;;;;;;;;;;;6285379;22;20208;-91
2022/08/31 15:08:09;;;;;;;;;;;;;;;;;;6282701;22;19903;-93
2022/08/31 15:10:35;;;;;;;;;;;;;;;;;;6282003;22;20389;-93
2022/08/31 15:13:06;;;;;;;;;;;;;;;;;;6285688;22;19907;-92
2022/08/31 15:15:35;;;;;;;;;;;;;;;;;;6294167;22;20054;-94
2022/08/31 15:18:08;;;;;;;;;;;;;;;;;;6291620;22;19899;-91
2022/08/31 15:20:38;;;;;;;;;;;;;;;;;;6294915;22;19910;-89
2022/08/31 15:23:08;;;;;;;;;;;;;;;;;;6284414;22;19906;-94
2022/08/31 15:25:35;;;;;;;;;;;;;;;;;;6304294;22;20018;-93
2022/08/31 15:28:01;;;;;;;;;;;;;;;;;;6320595;22;19914;-93
2022/08/31 15:30:39;;;;;;;;;;;;;;;;;;6326324;22;19944;-91
2022/08/31 15:35:53;;;;;;;;;;;;;;;;;;6326794;22;19910;-91
2022/08/31 15:38:22;;;;;;;;;;;;;;;;;;6324540;22;19898;-92
2022/08/31 15:40:49;;;;;;;;;;;;;;;;;;6329133;22;19903;-94
2022/08/31 15:43:33;;;;;;;;;;;;;;;;;;6318440;22;19902;-93
2022/08/31 15:46:00;;;;;;;;;;;;;;;;;;6315620;22;19899;-93
2022/08/31 15:48:47;;;;;;;;;;;;;;;;;;6319641;22;20231;-90
2022/08/31 15:51:17;;;;;;;;;;;;;;;;;;6315921;22;19906;-95
2022/08/31 15:53:45;;;;;;;;;;;;;;;;;;6315440;22;19924;-92
2022/08/31 15:56:14;;;;;;;;;;;;;;;;;;6318449;22;19914;-89
2022/08/31 15:58:40;;;;;;;;;;;;;;;;;;6317070;22;19903;-94
2022/08/31 16:01:11;;;;;;;;;;;;;;;;;;6303414;22;19918;-92
2022/08/31 16:03:40;;;;;;;;;;;;;;;;;;6324202;22;19903;-93
2022/08/31 16:06:15;;;;;;;;;;;;;;;;;;6324907;22;19898;-95
2022/08/31 16:08:56;;;;;;;;;;;;;;;;;;6349626;22;19899;-94
2022/08/31 16:11:24;;;;;;;;;;;;;;;;;;6307341;22;19906;-92
2022/08/31 16:16:39;;;;;;;;;;;;;;;;;;6332214;22;19942;-93
2022/08/31 16:19:06;;;;;;;;;;;;;;;;;;6318846;22;19902;-92
2022/08/31 16:21:51;;;;;;;;;;;;;;;;;;;;;
2022/08/31 16:24:28;;;;;;;;;;;;;;;;;;;;;
2022/08/31 16:26:59;;;;;;;;;;;;;;;;;;6355439;22;19903;-94
2022/08/31 16:29:30;;;;;;;;;;;;;;;;;;6335679;22;19942;-92
2022/08/31 16:31:56;;;;;;;;;;;;;;;;;;6325809;22;20590;-93
2022/08/31 16:34:44;;;;;;;;;;;;;;;;;;6323594;22;19899;-92
2022/08/31 16:37:09;;;;;;;;;;;;;;;;;;6344171;22;19920;-93
2022/08/31 16:39:38;;;;;;;;;;;;;;;;;;6319413;22;19947;-93
2022/08/31 16:42:04;;;;;;;;;;;;;;;;;;6317804;22;19899;-94
2022/08/31 16:44:30;;;;;;;;;;;;;;;;;;6316584;22;19972;-93
2022/08/31 16:46:58;;;;;;;;;;;;;;;;;;6318819;22;19902;-91
2022/08/31 16:49:39;;;;;;;;;;;;;;;;;;6318163;22;19923;-93
2022/08/31 16:52:05;;;;;;;;;;;;;;;;;;6318998;22;19907;-92
2022/08/31 16:54:33;;;;;;;;;;;;;;;;;;6349987;22;19909;-90
2022/08/31 16:56:59;;;;;;;;;;;;;;;;;;6322209;22;19906;-92
2022/08/31 16:59:25;;;;;;;;;;;;;;;;;;6322315;22;19914;-90
2022/08/31 17:01:51;;;;;;;;;;;;;;;;;;6317771;22;19910;-93
2022/08/31 17:04:20;;;;;;;;;;;;;;;;;;6323266;22;20235;-92
2022/08/31 17:06:46;;;;;;;;;;;;;;;;;;6322920;22;19898;-90
2022/08/31 17:09:14;;;;;;;;;;;;;;;;;;6319214;22;19902;-91
2022/08/31 17:11:46;;;;;;;;;;;;;;;;;;6315164;22;19944;-91
2022/08/31 17:14:14;;;;;;;;;;;;;;;;;;6314936;22;19899;-90
2022/08/31 17:16:43;;;;;;;;;;;;;;;;;;6322669;22;19951;-92
2022/08/31 17:19:15;;;;;;;;;;;;;;;;;;6323922;22;19903;-93
2022/08/31 17:22:23;;;;;;;2.87;2.77;;;;;;;;;;6323786;22;20168;-93
2022/08/31 17:24:56;;;;;;;3.33;3.10;;;;;;;;;;6265614;22;20370;-91
2022/08/31 17:27:31;;;;;;;2.80;2.70;;;;;;;;;;6324767;22;20659;-93
2022/08/31 17:29:59;;;;;;;2.97;2.80;;;;;;;;;;6325188;22;20447;-91
2022/08/31 17:32:28;;;;;;;2.80;2.70;;;;;;;;;;6319421;22;20380;-91
2022/08/31 17:34:57;;;;;;;2.90;2.80;;;;;;;;;;6314918;22;20368;-94
2022/08/31 17:37:35;;;;;;;4.40;2.97;;;;;;;;;;6312126;22;20372;-90
2022/08/31 17:40:03;;;;;;;2.70;2.60;;;;;;;;;;6312823;22;20419;-90
2022/08/31 17:42:38;;;;;;;3.10;3.10;;;;;;;;;;6311408;22;20357;-90
2022/08/31 17:45:17;;;;;;;4.30;3.17;;;;;;;;;;6319559;22;20357;-93
2022/08/31 17:47:53;;;;;;;;;;;;;;;;;;;;;
2022/08/31 17:50:20;;;;;;;2.72;2.60;;;;;;;;;;6343841;22;20365;-92
2022/08/31 17:52:46;;;;;;;3.10;3.00;;;;;;;;;;6309218;22;20476;-92
2022/08/31 17:55:16;;;;;;;4.13;3.30;;;;;;;;;;6312467;22;20357;-93
2022/08/31 17:57:45;;;;;;;3.30;2.60;;;;;;;;;;6310037;22;20353;-90
2022/08/31 18:00:51;;;;;;;2.10;2.10;;;;;;;;;;6311115;22;20360;-91
2022/08/31 18:03:17;;;;;;;2.60;2.40;;;;;;;;;;6301580;22;20407;-89
2022/08/31 18:05:47;;;;;;;3.28;2.60;;;;;;;;;;6281882;22;20358;-93
2022/08/31 18:08:24;;;;;;;2.50;2.40;;;;;;;;;;6294211;22;20406;-94
2022/08/31 18:10:51;;;;;;;2.50;2.40;;;;;;;;;;6300668;22;20342;-93
2022/08/31 18:13:24;;;;;;;4.70;3.10;;;;;;;;;;6324750;22;20367;-93
2022/08/31 18:15:50;;;;;;;3.30;3.20;;;;;;;;;;6289279;22;20359;-94
2022/08/31 18:18:17;;;;;;;3.30;3.20;;;;;;;;;;6287849;22;20446;-89
2022/08/31 18:20:43;;;;;;;3.50;3.30;;;;;;;;;;6313209;22;20347;-90
2022/08/31 18:23:15;;;;;;;2.58;2.47;;;;;;;;;;6307119;22;20354;-89
2022/08/31 18:25:41;;;;;;;2.30;2.30;;;;;;;;;;6278296;22;20350;-88
2022/08/31 18:28:07;;;;;;;3.15;2.60;;;;;;;;;;6276830;22;20351;-91
2022/08/31 18:30:33;;;;;;;2.90;2.70;;;;;;;;;;6304918;22;20343;-90
2022/08/31 18:33:04;;;;;;;2.80;2.43;;;;;;;;;;6276764;22;20430;-91
2022/08/31 18:35:32;;;;;;;2.55;2.45;;;;;;;;;;6277926;22;20363;-88
2022/08/31 18:38:01;;;;;;;2.60;2.50;;;;;;;;;;6273403;22;20358;-91
2022/08/31 18:46:16;;;;;;;3.00;2.90;;;;;;;;;;6239365;23;20362;-91
2022/08/31 18:48:47;;;;;;;2.60;2.40;;;;;;;;;;6247002;22;20807;-90
2022/08/31 18:51:13;;;;;;;2.40;2.20;;;;;;;;;;6302024;22;20806;-91
2022/08/31 18:53:39;;;;;;;2.28;2.28;;;;;;;;;;6273791;22;20385;-91
2022/08/31 18:56:10;;;;;;;3.50;2.40;;;;;;;;;;6277694;22;20374;-92
2022/08/31 18:58:37;;;;;;;2.20;2.20;;;;;;;;;;6274133;22;20890;-92
2022/08/31 19:01:08;;;;;;;2.10;1.90;;;;;;;;;;6296434;22;20353;-91
2022/08/31 19:03:36;;;;;;;2.35;2.25;;;;;;;;;;6273397;22;20378;-92
2022/08/31 19:06:06;;;;;;;3.72;2.80;;;;;;;;;;6275061;22;20826;-92
2022/08/31 19:08:37;;;;;;;6.25;5.90;;;;;;;;;;6275754;22;20365;-91
2022/08/31 19:11:11;;;;;;;2.65;2.65;;;;;;;;;;6302298;22;20354;-92
2022/08/31 19:13:39;;;;;;;3.97;2.20;;;;;;;;;;6275089;22;20381;-90
2022/08/31 19:16:23;;;;;;;2.10;2.10;;;;;;;;;;6279722;22;20378;-94
2022/08/31 19:18:54;;;;;;;2.47;2.00;;;;;;;;;;6305234;22;20427;-91
2022/08/31 19:21:58;;;;;;;2.80;2.25;;;;;;;;;;6279890;22;20411;-90
2022/08/31 19:24:50;;;;;;;2.37;2.17;;;;;;;;;;6210123;22;20456;-94
2022/08/31 19:56:09;;;;;;;2.03;2.00;;;;;;;;;;6265723;22;20386;-91
2022/08/31 20:23:36;;;;;;;7.88;7.28;;;;;;;;;;6287827;22;20538;-92
2022/08/31 21:00:31;;;;;;;2.30;2.20;;;;;;;;;;6297448;22;20378;-95
2022/08/31 21:16:36;;;;;;;4.25;2.83;;;;;;;;;;6276716;22;20483;-93
2022/08/31 21:19:33;;;;;;;12.18;3.97;;;;;;;;;;6275591;22;20359;-95
2022/08/31 21:22:00;;;;;;;1.80;1.80;;;;;;;;;;6246554;22;20368;-94
2022/08/31 21:24:32;;;;;;;3.13;2.88;;;;;;;;;;6245872;22;20375;-94
2022/08/31 21:27:02;;;;;;;3.60;1.80;;;;;;;;;;6247078;22;20364;-94
2022/08/31 21:29:29;;;;;;;2.17;2.05;;;;;;;;;;6247833;22;20378;-94
2022/08/31 21:31:58;;;;;;;1.85;1.75;;;;;;;;;;6275143;22;20367;-93
2022/08/31 21:34:25;;;;;;;2.30;2.10;;;;;;;;;;6246488;22;20369;-95
2022/08/31 21:36:51;;;;;;;2.10;1.90;;;;;;;;;;6248065;22;20360;-94
2022/08/31 21:49:43;;;;;;;2.00;1.80;;;;;;;;;;6306873;22;20386;-94
2022/08/31 21:52:14;;;;;;;4.30;1.80;;;;;;;;;;6281076;22;21105;-93
2022/08/31 21:54:43;;;;;;;2.10;2.00;;;;;;;;;;6276976;22;20366;-94
2022/08/31 21:57:11;;;;;;;2.30;2.10;;;;;;;;;;6277188;22;20445;-96
2022/08/31 21:59:53;;;;;;;1.90;1.80;;;;;;;;;;6300481;22;20363;-94
2022/08/31 22:10:11;;;;;;;1.83;1.73;;;;;;;;;;6272448;22;20884;-95
2022/08/31 22:12:40;;;;;;;2.03;1.83;;;;;;;;;;6248714;22;20383;-94
2022/08/31 22:15:09;;;;;;;1.80;1.70;;;;;;;;;;6220273;22;20368;-94
2022/08/31 22:17:36;;;;;;;1.90;1.80;;;;;;;;;;6246078;22;20844;-93
2022/08/31 22:20:03;;;;;;;2.40;2.30;;;;;;;;;;6244763;22;20513;-94
2022/08/31 22:22:32;;;;;;;2.50;2.30;;;;;;;;;;6247691;22;20360;-93
2022/08/31 22:25:01;;;;;;;2.10;2.00;;;;;;;;;;6244491;22;20398;-94
2022/08/31 22:27:27;;;;;;;1.60;1.60;;;;;;;;;;6246964;22;20368;-93
2022/08/31 22:29:55;;;;;;;2.10;2.00;;;;;;;;;;6245223;22;20364;-93
2022/08/31 22:32:22;;;;;;;1.75;1.75;;;;;;;;;;6273977;22;20368;-91
2022/08/31 22:34:48;;;;;;;2.10;2.10;;;;;;;;;;6245236;22;20414;-92
2022/08/31 22:37:14;;;;;;;2.50;2.28;;;;;;;;;;6247702;22;20359;-92
2022/08/31 22:39:41;;;;;;;2.38;1.60;;;;;;;;;;6262571;22;20370;-91
2022/08/31 22:42:10;;;;;;;4.20;2.10;;;;;;;;;;6266747;22;20368;-92
2022/08/31 22:44:39;;;;;;;3.50;1.70;;;;;;;;;;6268313;22;20374;-93
2022/08/31 22:47:05;;;;;;;2.05;1.88;;;;;;;;;;6268663;22;20383;-93
2022/08/31 22:49:31;;;;;;;3.03;2.00;;;;;;;;;;6237933;23;20354;-93
2022/08/31 22:51:57;;;;;;;2.80;1.98;;;;;;;;;;6239284;23;20437;-95
2022/08/31 22:54:25;;;;;;;2.08;1.98;;;;;;;;;;6242595;22;20362;-93
2022/08/31 22:56:51;;;;;;;2.90;2.03;;;;;;;;;;6244975;22;20433;-93
2022/08/31 22:59:23;;;;;;;1.40;1.40;;;;;;;;;;6242326;23;20424;-94
2022/08/31 23:01:53;;;;;;;3.40;1.80;;;;;;;;;;6235225;23;20361;-93
2022/08/31 23:04:20;;;;;;;1.85;1.85;;;;;;;;;;6222567;23;20370;-92
2022/08/31 23:06:49;;;;;;;1.70;1.60;;;;;;;;;;6212544;23;20724;-93
2022/08/31 23:09:19;;;;;;;2.40;1.70;;;;;;;;;;6210141;23;20425;-93
2022/08/31 23:11:46;;;;;;;4.57;4.38;;;;;;;;;;6187465;23;20376;-94
2022/08/31 23:14:13;;;;;;;1.70;1.70;;;;;;;;;;6211283;23;20829;-94
2022/08/31 23:16:44;;;;;;;2.17;2.00;;;;;;;;;;6215885;23;20348;-94
2022/08/31 23:19:13;;;;;;;2.20;1.90;;;;;;;;;;6219801;23;20367;-93
2022/08/31 23:21:46;;;;;;;2.38;2.10;;;;;;;;;;6203402;23;21081;-93
2022/08/31 23:24:13;;;;;;;1.80;1.70;;;;;;;;;;6201792;23;20368;-94
2022/08/31 23:26:41;;;;;;;3.15;2.22;;;;;;;;;;6228792;23;20583;-94
2022/08/31 23:29:08;;;;;;;2.10;2.00;;;;;;;;;;6213309;23;20363;-94
2022/08/31 23:31:35;;;;;;;1.70;1.70;;;;;;;;;;6213948;23;20363;-94
2022/08/31 23:34:04;;;;;;;2.80;1.83;;;;;;;;;;6188194;23;20850;-93
2022/08/31 23:36:30;;;;;;;2.42;2.17;;;;;;;;;;6215423;23;20835;-92
2022/08/31 23:38:57;;;;;;;2.60;1.88;;;;;;;;;;6212526;23;20824;-93
2022/08/31 23:41:25;;;;;;;1.83;1.73;;;;;;;;;;6188978;23;20378;-93
2022/08/31 23:43:52;;;;;;;2.40;2.00;;;;;;;;;;6186274;23;20378;-93
2022/08/31 23:46:22;;;;;;;1.90;1.90;;;;;;;;;;6187791;23;20354;-94